sensor_id;sensor_type;location;lat;lon;timestamp;temperature;humidity
27413;DHT22;14871;52.702;5.230;2023-03-16T00:00:24;8.30;96.70
27413;DHT22;14871;52.702;5.230;2023-03-16T00:02:49;8.30;97.00
27413;DHT22;14871;52.702;5.230;2023-03-16T00:05:15;8.30;97.10
27413;DHT22;14871;52.702;5.230;2023-03-16T00:07:42;8.30;97.30
27413;DHT22;14871;52.702;5.230;2023-03-16T00:10:09;8.10;97.40
27413;DHT22;14871;52.702;5.230;2023-03-16T00:12:37;8.30;97.30
27413;DHT22;14871;52.702;5.230;2023-03-16T00:15:03;8.30;97.40
27413;DHT22;14871;52.702;5.230;2023-03-16T00:17:29;8.10;97.80
27413;DHT22;14871;52.702;5.230;2023-03-16T00:19:56;8.00;98.10
27413;DHT22;14871;52.702;5.230;2023-03-16T00:22:24;7.90;98.60
27413;DHT22;14871;52.702;5.230;2023-03-16T00:24:50;8.00;98.70
27413;DHT22;14871;52.702;5.230;2023-03-16T00:27:17;8.10;98.30
27413;DHT22;14871;52.702;5.230;2023-03-16T00:29:44;8.10;98.40
27413;DHT22;14871;52.702;5.230;2023-03-16T00:32:18;8.00;98.30
27413;DHT22;14871;52.702;5.230;2023-03-16T00:34:45;8.00;98.40
27413;DHT22;14871;52.702;5.230;2023-03-16T00:37:13;8.10;98.20
27413;DHT22;14871;52.702;5.230;2023-03-16T00:39:44;7.80;98.80
27413;DHT22;14871;52.702;5.230;2023-03-16T00:42:12;7.90;98.70
27413;DHT22;14871;52.702;5.230;2023-03-16T00:44:39;7.90;98.50
27413;DHT22;14871;52.702;5.230;2023-03-16T00:47:06;7.90;98.40
27413;DHT22;14871;52.702;5.230;2023-03-16T00:49:33;8.00;98.20
27413;DHT22;14871;52.702;5.230;2023-03-16T00:52:01;7.90;98.60
27413;DHT22;14871;52.702;5.230;2023-03-16T00:54:28;8.00;98.50
27413;DHT22;14871;52.702;5.230;2023-03-16T00:56:54;8.00;98.60
27413;DHT22;14871;52.702;5.230;2023-03-16T00:59:19;8.00;98.80
27413;DHT22;14871;52.702;5.230;2023-03-16T01:01:46;8.10;98.60
27413;DHT22;14871;52.702;5.230;2023-03-16T01:04:12;7.90;98.80
27413;DHT22;14871;52.702;5.230;2023-03-16T01:06:38;8.00;98.90
27413;DHT22;14871;52.702;5.230;2023-03-16T01:09:04;8.00;99.20
27413;DHT22;14871;52.702;5.230;2023-03-16T01:11:30;8.00;99.10
27413;DHT22;14871;52.702;5.230;2023-03-16T01:13:58;7.90;99.50
27413;DHT22;14871;52.702;5.230;2023-03-16T01:16:25;8.00;99.40
27413;DHT22;14871;52.702;5.230;2023-03-16T01:18:51;8.10;99.30
27413;DHT22;14871;52.702;5.230;2023-03-16T01:21:18;8.00;99.70
27413;DHT22;14871;52.702;5.230;2023-03-16T01:23:46;7.90;99.90
27413;DHT22;14871;52.702;5.230;2023-03-16T01:26:11;8.00;99.90
27413;DHT22;14871;52.702;5.230;2023-03-16T01:28:37;8.00;99.90
27413;DHT22;14871;52.702;5.230;2023-03-16T01:31:08;7.90;99.90
27413;DHT22;14871;52.702;5.230;2023-03-16T01:33:35;7.90;99.90
27413;DHT22;14871;52.702;5.230;2023-03-16T01:36:04;8.30;99.50
27413;DHT22;14871;52.702;5.230;2023-03-16T01:38:30;8.20;99.70
27413;DHT22;14871;52.702;5.230;2023-03-16T01:40:56;7.90;99.90
27413;DHT22;14871;52.702;5.230;2023-03-16T01:43:24;8.00;99.90
27413;DHT22;14871;52.702;5.230;2023-03-16T01:46:12;7.80;99.90
27413;DHT22;14871;52.702;5.230;2023-03-16T01:49:13;8.10;99.90
27413;DHT22;14871;52.702;5.230;2023-03-16T01:51:42;8.00;99.90
27413;DHT22;14871;52.702;5.230;2023-03-16T01:59:19;8.10;99.90
27413;DHT22;14871;52.702;5.230;2023-03-16T02:01:48;8.10;99.90
27413;DHT22;14871;52.702;5.230;2023-03-16T02:04:27;8.00;99.90
27413;DHT22;14871;52.702;5.230;2023-03-16T02:06:54;7.80;99.90
27413;DHT22;14871;52.702;5.230;2023-03-16T02:09:20;7.80;99.90
27413;DHT22;14871;52.702;5.230;2023-03-16T02:11:47;7.80;99.90
27413;DHT22;14871;52.702;5.230;2023-03-16T02:14:13;7.70;99.90
27413;DHT22;14871;52.702;5.230;2023-03-16T02:16:40;7.70;99.90
27413;DHT22;14871;52.702;5.230;2023-03-16T02:19:11;7.70;99.90
27413;DHT22;14871;52.702;5.230;2023-03-16T02:21:59;7.70;99.90
27413;DHT22;14871;52.702;5.230;2023-03-16T02:24:26;7.70;99.90
27413;DHT22;14871;52.702;5.230;2023-03-16T02:26:55;7.60;99.90
27413;DHT22;14871;52.702;5.230;2023-03-16T02:32:14;7.60;99.90
27413;DHT22;14871;52.702;5.230;2023-03-16T02:34:42;7.80;99.90
27413;DHT22;14871;52.702;5.230;2023-03-16T02:37:08;7.80;99.90
27413;DHT22;14871;52.702;5.230;2023-03-16T02:39:34;7.70;99.90
27413;DHT22;14871;52.702;5.230;2023-03-16T02:42:00;7.70;99.90
27413;DHT22;14871;52.702;5.230;2023-03-16T02:44:29;7.60;99.90
27413;DHT22;14871;52.702;5.230;2023-03-16T02:47:04;7.60;99.90
27413;DHT22;14871;52.702;5.230;2023-03-16T02:49:41;7.80;99.90
27413;DHT22;14871;52.702;5.230;2023-03-16T02:52:08;7.70;99.90
27413;DHT22;14871;52.702;5.230;2023-03-16T02:54:34;7.70;99.90
27413;DHT22;14871;52.702;5.230;2023-03-16T02:57:00;7.60;99.90
27413;DHT22;14871;52.702;5.230;2023-03-16T02:59:26;7.50;99.90
27413;DHT22;14871;52.702;5.230;2023-03-16T03:01:52;7.50;99.90
27413;DHT22;14871;52.702;5.230;2023-03-16T03:04:17;7.50;99.90
27413;DHT22;14871;52.702;5.230;2023-03-16T03:06:43;7.40;99.90
27413;DHT22;14871;52.702;5.230;2023-03-16T03:09:09;7.50;99.90
27413;DHT22;14871;52.702;5.230;2023-03-16T03:11:37;7.60;99.90
27413;DHT22;14871;52.702;5.230;2023-03-16T03:14:03;7.40;99.90
27413;DHT22;14871;52.702;5.230;2023-03-16T03:16:30;7.40;99.90
27413;DHT22;14871;52.702;5.230;2023-03-16T03:18:56;7.50;99.90
27413;DHT22;14871;52.702;5.230;2023-03-16T03:21:22;7.50;99.90
27413;DHT22;14871;52.702;5.230;2023-03-16T03:23:48;7.50;99.90
27413;DHT22;14871;52.702;5.230;2023-03-16T03:26:14;7.50;99.90
27413;DHT22;14871;52.702;5.230;2023-03-16T03:28:40;7.40;99.90
27413;DHT22;14871;52.702;5.230;2023-03-16T03:31:11;7.40;99.90
27413;DHT22;14871;52.702;5.230;2023-03-16T03:33:37;7.40;99.90
27413;DHT22;14871;52.702;5.230;2023-03-16T03:36:03;7.30;99.90
27413;DHT22;14871;52.702;5.230;2023-03-16T03:38:29;7.40;99.90
27413;DHT22;14871;52.702;5.230;2023-03-16T03:40:55;7.30;99.90
27413;DHT22;14871;52.702;5.230;2023-03-16T03:43:26;7.20;99.90
27413;DHT22;14871;52.702;5.230;2023-03-16T03:45:56;7.10;99.90
27413;DHT22;14871;52.702;5.230;2023-03-16T03:48:23;7.20;99.90
27413;DHT22;14871;52.702;5.230;2023-03-16T03:50:48;7.20;99.90
27413;DHT22;14871;52.702;5.230;2023-03-16T03:53:15;7.20;99.90
27413;DHT22;14871;52.702;5.230;2023-03-16T03:55:40;7.10;99.90
27413;DHT22;14871;52.702;5.230;2023-03-16T03:58:06;7.20;99.90
27413;DHT22;14871;52.702;5.230;2023-03-16T04:00:32;7.30;99.90
27413;DHT22;14871;52.702;5.230;2023-03-16T04:02:57;7.50;99.90
27413;DHT22;14871;52.702;5.230;2023-03-16T04:05:24;7.40;99.90
27413;DHT22;14871;52.702;5.230;2023-03-16T04:07:54;7.30;99.90
27413;DHT22;14871;52.702;5.230;2023-03-16T04:10:23;7.30;99.90
27413;DHT22;14871;52.702;5.230;2023-03-16T04:12:49;7.20;99.90
27413;DHT22;14871;52.702;5.230;2023-03-16T04:15:14;7.20;99.90
27413;DHT22;14871;52.702;5.230;2023-03-16T04:17:40;7.20;99.90
27413;DHT22;14871;52.702;5.230;2023-03-16T04:20:07;7.20;99.90
27413;DHT22;14871;52.702;5.230;2023-03-16T04:22:40;7.20;99.90
27413;DHT22;14871;52.702;5.230;2023-03-16T04:25:11;7.40;99.90
27413;DHT22;14871;52.702;5.230;2023-03-16T04:27:37;7.50;99.90
27413;DHT22;14871;52.702;5.230;2023-03-16T04:30:07;7.40;99.90
27413;DHT22;14871;52.702;5.230;2023-03-16T04:32:36;7.40;99.90
27413;DHT22;14871;52.702;5.230;2023-03-16T04:35:02;7.40;99.90
27413;DHT22;14871;52.702;5.230;2023-03-16T04:37:27;7.40;99.90
27413;DHT22;14871;52.702;5.230;2023-03-16T04:39:53;7.20;99.90
27413;DHT22;14871;52.702;5.230;2023-03-16T04:42:19;7.30;99.90
27413;DHT22;14871;52.702;5.230;2023-03-16T04:44:44;7.20;99.90
27413;DHT22;14871;52.702;5.230;2023-03-16T04:47:11;7.40;99.90
27413;DHT22;14871;52.702;5.230;2023-03-16T04:49:36;7.40;99.90
27413;DHT22;14871;52.702;5.230;2023-03-16T04:52:02;7.30;99.90
27413;DHT22;14871;52.702;5.230;2023-03-16T04:54:29;7.40;99.90
27413;DHT22;14871;52.702;5.230;2023-03-16T04:56:55;7.50;99.90
27413;DHT22;14871;52.702;5.230;2023-03-16T04:59:20;7.20;99.90
27413;DHT22;14871;52.702;5.230;2023-03-16T05:01:46;7.40;99.90
27413;DHT22;14871;52.702;5.230;2023-03-16T05:04:12;7.40;99.90
27413;DHT22;14871;52.702;5.230;2023-03-16T05:06:38;7.30;99.90
27413;DHT22;14871;52.702;5.230;2023-03-16T05:09:04;7.30;99.90
27413;DHT22;14871;52.702;5.230;2023-03-16T05:11:31;7.20;99.90
27413;DHT22;14871;52.702;5.230;2023-03-16T05:13:57;7.30;99.90
27413;DHT22;14871;52.702;5.230;2023-03-16T05:16:23;7.00;99.90
27413;DHT22;14871;52.702;5.230;2023-03-16T05:18:48;7.20;99.90
27413;DHT22;14871;52.702;5.230;2023-03-16T05:21:14;7.10;99.90
27413;DHT22;14871;52.702;5.230;2023-03-16T05:23:40;7.00;99.90
27413;DHT22;14871;52.702;5.230;2023-03-16T05:26:06;7.00;99.90
27413;DHT22;14871;52.702;5.230;2023-03-16T05:28:32;7.10;99.90
27413;DHT22;14871;52.702;5.230;2023-03-16T05:30:58;7.00;99.90
27413;DHT22;14871;52.702;5.230;2023-03-16T05:33:23;7.10;99.90
27413;DHT22;14871;52.702;5.230;2023-03-16T05:35:49;7.20;99.90
27413;DHT22;14871;52.702;5.230;2023-03-16T05:38:15;7.10;99.90
27413;DHT22;14871;52.702;5.230;2023-03-16T05:40:41;7.20;99.90
27413;DHT22;14871;52.702;5.230;2023-03-16T05:43:07;7.30;99.90
27413;DHT22;14871;52.702;5.230;2023-03-16T05:45:32;7.20;99.90
27413;DHT22;14871;52.702;5.230;2023-03-16T05:47:58;7.30;99.90
27413;DHT22;14871;52.702;5.230;2023-03-16T05:50:24;7.20;99.90
27413;DHT22;14871;52.702;5.230;2023-03-16T05:52:50;7.20;99.90
27413;DHT22;14871;52.702;5.230;2023-03-16T05:55:16;7.20;99.90
27413;DHT22;14871;52.702;5.230;2023-03-16T05:57:42;7.20;99.90
27413;DHT22;14871;52.702;5.230;2023-03-16T06:00:10;7.30;99.90
27413;DHT22;14871;52.702;5.230;2023-03-16T06:02:44;7.30;99.90
27413;DHT22;14871;52.702;5.230;2023-03-16T06:05:14;7.40;99.90
27413;DHT22;14871;52.702;5.230;2023-03-16T06:07:40;7.50;99.90
27413;DHT22;14871;52.702;5.230;2023-03-16T06:10:06;7.30;99.90
27413;DHT22;14871;52.702;5.230;2023-03-16T06:12:32;7.60;99.90
27413;DHT22;14871;52.702;5.230;2023-03-16T06:14:59;7.50;99.90
27413;DHT22;14871;52.702;5.230;2023-03-16T06:17:25;7.50;99.90
27413;DHT22;14871;52.702;5.230;2023-03-16T06:19:51;7.40;99.90
27413;DHT22;14871;52.702;5.230;2023-03-16T06:22:17;7.30;99.90
27413;DHT22;14871;52.702;5.230;2023-03-16T06:24:43;7.10;99.90
27413;DHT22;14871;52.702;5.230;2023-03-16T06:27:09;7.00;99.90
27413;DHT22;14871;52.702;5.230;2023-03-16T06:29:35;7.10;99.90
27413;DHT22;14871;52.702;5.230;2023-03-16T06:32:00;7.10;99.90
27413;DHT22;14871;52.702;5.230;2023-03-16T06:34:26;7.30;99.90
27413;DHT22;14871;52.702;5.230;2023-03-16T06:36:52;7.20;99.90
27413;DHT22;14871;52.702;5.230;2023-03-16T06:39:17;7.10;99.90
27413;DHT22;14871;52.702;5.230;2023-03-16T06:41:43;7.20;99.90
27413;DHT22;14871;52.702;5.230;2023-03-16T06:44:09;7.10;99.90
27413;DHT22;14871;52.702;5.230;2023-03-16T06:46:36;7.20;99.90
27413;DHT22;14871;52.702;5.230;2023-03-16T06:49:02;7.40;99.90
27413;DHT22;14871;52.702;5.230;2023-03-16T06:51:28;7.20;99.90
27413;DHT22;14871;52.702;5.230;2023-03-16T06:53:54;7.30;99.90
27413;DHT22;14871;52.702;5.230;2023-03-16T06:56:20;7.20;99.90
27413;DHT22;14871;52.702;5.230;2023-03-16T06:58:46;7.40;99.90
27413;DHT22;14871;52.702;5.230;2023-03-16T07:01:11;7.50;99.90
27413;DHT22;14871;52.702;5.230;2023-03-16T07:03:37;7.60;99.90
27413;DHT22;14871;52.702;5.230;2023-03-16T07:06:03;7.50;99.90
27413;DHT22;14871;52.702;5.230;2023-03-16T07:08:30;7.40;99.90
27413;DHT22;14871;52.702;5.230;2023-03-16T07:10:56;7.50;99.90
27413;DHT22;14871;52.702;5.230;2023-03-16T07:13:21;7.30;99.90
27413;DHT22;14871;52.702;5.230;2023-03-16T07:15:51;7.30;99.90
27413;DHT22;14871;52.702;5.230;2023-03-16T07:18:20;7.50;99.90
27413;DHT22;14871;52.702;5.230;2023-03-16T07:20:46;7.40;99.90
27413;DHT22;14871;52.702;5.230;2023-03-16T07:23:12;7.50;99.90
27413;DHT22;14871;52.702;5.230;2023-03-16T07:25:37;7.60;99.90
27413;DHT22;14871;52.702;5.230;2023-03-16T07:28:03;7.40;99.90
27413;DHT22;14871;52.702;5.230;2023-03-16T07:30:29;7.60;99.90
27413;DHT22;14871;52.702;5.230;2023-03-16T07:32:55;7.50;99.90
27413;DHT22;14871;52.702;5.230;2023-03-16T07:35:21;7.50;99.90
27413;DHT22;14871;52.702;5.230;2023-03-16T07:37:47;7.40;99.90
27413;DHT22;14871;52.702;5.230;2023-03-16T07:40:13;7.40;99.90
27413;DHT22;14871;52.702;5.230;2023-03-16T07:42:39;7.40;99.90
27413;DHT22;14871;52.702;5.230;2023-03-16T07:45:06;7.30;99.90
27413;DHT22;14871;52.702;5.230;2023-03-16T07:47:32;7.40;99.90
27413;DHT22;14871;52.702;5.230;2023-03-16T07:49:58;7.50;99.90
27413;DHT22;14871;52.702;5.230;2023-03-16T07:52:24;7.50;99.90
27413;DHT22;14871;52.702;5.230;2023-03-16T07:54:50;7.40;99.90
27413;DHT22;14871;52.702;5.230;2023-03-16T07:57:16;7.50;99.90
27413;DHT22;14871;52.702;5.230;2023-03-16T07:59:42;7.50;99.90
27413;DHT22;14871;52.702;5.230;2023-03-16T08:02:16;7.50;99.90
27413;DHT22;14871;52.702;5.230;2023-03-16T08:04:42;7.60;99.90
27413;DHT22;14871;52.702;5.230;2023-03-16T08:07:10;7.70;99.90
27413;DHT22;14871;52.702;5.230;2023-03-16T08:09:36;7.50;99.90
27413;DHT22;14871;52.702;5.230;2023-03-16T08:12:03;7.70;99.90
27413;DHT22;14871;52.702;5.230;2023-03-16T08:14:30;7.70;99.90
27413;DHT22;14871;52.702;5.230;2023-03-16T08:16:58;7.80;99.90
27413;DHT22;14871;52.702;5.230;2023-03-16T08:19:23;7.70;99.90
27413;DHT22;14871;52.702;5.230;2023-03-16T08:21:49;7.70;99.90
27413;DHT22;14871;52.702;5.230;2023-03-16T08:24:15;7.60;99.90
27413;DHT22;14871;52.702;5.230;2023-03-16T08:26:41;7.70;99.90
27413;DHT22;14871;52.702;5.230;2023-03-16T08:29:06;8.00;99.90
27413;DHT22;14871;52.702;5.230;2023-03-16T08:31:32;8.20;99.90
27413;DHT22;14871;52.702;5.230;2023-03-16T08:34:00;8.20;99.90
27413;DHT22;14871;52.702;5.230;2023-03-16T08:36:26;8.20;99.90
27413;DHT22;14871;52.702;5.230;2023-03-16T08:38:53;8.00;99.90
27413;DHT22;14871;52.702;5.230;2023-03-16T08:41:19;8.00;99.90
27413;DHT22;14871;52.702;5.230;2023-03-16T08:43:45;8.00;99.90
27413;DHT22;14871;52.702;5.230;2023-03-16T08:46:12;7.90;99.90
27413;DHT22;14871;52.702;5.230;2023-03-16T08:48:41;8.00;99.90
27413;DHT22;14871;52.702;5.230;2023-03-16T08:51:08;8.10;99.90
27413;DHT22;14871;52.702;5.230;2023-03-16T08:53:35;8.10;99.90
27413;DHT22;14871;52.702;5.230;2023-03-16T08:56:05;8.30;99.90
27413;DHT22;14871;52.702;5.230;2023-03-16T08:58:33;8.30;99.90
27413;DHT22;14871;52.702;5.230;2023-03-16T09:01:02;8.20;99.90
27413;DHT22;14871;52.702;5.230;2023-03-16T09:03:30;8.40;99.90
27413;DHT22;14871;52.702;5.230;2023-03-16T09:06:01;8.40;99.90
27413;DHT22;14871;52.702;5.230;2023-03-16T09:08:27;8.40;99.90
27413;DHT22;14871;52.702;5.230;2023-03-16T09:11:04;8.40;99.90
27413;DHT22;14871;52.702;5.230;2023-03-16T09:13:32;8.50;99.90
27413;DHT22;14871;52.702;5.230;2023-03-16T09:15:58;8.50;99.90
27413;DHT22;14871;52.702;5.230;2023-03-16T09:18:24;8.50;99.90
27413;DHT22;14871;52.702;5.230;2023-03-16T09:21:11;8.50;99.90
27413;DHT22;14871;52.702;5.230;2023-03-16T09:23:38;8.40;99.90
27413;DHT22;14871;52.702;5.230;2023-03-16T09:26:05;8.30;99.90
27413;DHT22;14871;52.702;5.230;2023-03-16T09:28:32;8.50;99.90
27413;DHT22;14871;52.702;5.230;2023-03-16T09:30:59;8.50;99.90
27413;DHT22;14871;52.702;5.230;2023-03-16T09:33:26;8.60;99.90
27413;DHT22;14871;52.702;5.230;2023-03-16T09:35:53;8.60;99.90
27413;DHT22;14871;52.702;5.230;2023-03-16T09:38:22;8.50;99.90
27413;DHT22;14871;52.702;5.230;2023-03-16T09:40:59;8.40;99.90
27413;DHT22;14871;52.702;5.230;2023-03-16T09:46:27;8.40;99.90
27413;DHT22;14871;52.702;5.230;2023-03-16T09:48:55;8.50;99.90
27413;DHT22;14871;52.702;5.230;2023-03-16T09:57:49;8.50;99.90
27413;DHT22;14871;52.702;5.230;2023-03-16T10:00:22;8.80;99.90
27413;DHT22;14871;52.702;5.230;2023-03-16T10:05:22;8.80;99.90
27413;DHT22;14871;52.702;5.230;2023-03-16T10:11:18;8.90;99.90
27413;DHT22;14871;52.702;5.230;2023-03-16T10:13:58;8.90;99.90
27413;DHT22;14871;52.702;5.230;2023-03-16T10:22:02;9.40;99.90
27413;DHT22;14871;52.702;5.230;2023-03-16T10:24:51;9.60;99.90
27413;DHT22;14871;52.702;5.230;2023-03-16T10:27:32;9.90;99.90
27413;DHT22;14871;52.702;5.230;2023-03-16T10:29:58;10.10;99.90
27413;DHT22;14871;52.702;5.230;2023-03-16T10:32:30;10.10;99.90
27413;DHT22;14871;52.702;5.230;2023-03-16T10:35:21;10.30;99.90
27413;DHT22;14871;52.702;5.230;2023-03-16T10:37:49;10.80;99.90
27413;DHT22;14871;52.702;5.230;2023-03-16T10:40:17;11.10;99.90
27413;DHT22;14871;52.702;5.230;2023-03-16T10:42:45;11.20;99.90
27413;DHT22;14871;52.702;5.230;2023-03-16T10:45:33;11.30;99.90
27413;DHT22;14871;52.702;5.230;2023-03-16T10:48:18;10.80;99.90
27413;DHT22;14871;52.702;5.230;2023-03-16T10:50:51;10.80;99.90
27413;DHT22;14871;52.702;5.230;2023-03-16T10:53:27;10.80;99.90
27413;DHT22;14871;52.702;5.230;2023-03-16T10:55:58;10.60;99.90
27413;DHT22;14871;52.702;5.230;2023-03-16T10:58:33;10.70;99.90
27413;DHT22;14871;52.702;5.230;2023-03-16T11:01:00;10.60;99.90
27413;DHT22;14871;52.702;5.230;2023-03-16T11:03:30;10.70;99.90
27413;DHT22;14871;52.702;5.230;2023-03-16T11:06:06;11.00;99.90
27413;DHT22;14871;52.702;5.230;2023-03-16T11:08:38;11.10;99.90
27413;DHT22;14871;52.702;5.230;2023-03-16T11:11:29;11.30;99.90
27413;DHT22;14871;52.702;5.230;2023-03-16T11:14:00;11.30;99.90
27413;DHT22;14871;52.702;5.230;2023-03-16T11:16:39;11.10;99.90
27413;DHT22;14871;52.702;5.230;2023-03-16T11:22:16;11.00;99.90
27413;DHT22;14871;52.702;5.230;2023-03-16T11:30:15;10.70;99.90
27413;DHT22;14871;52.702;5.230;2023-03-16T11:32:47;10.70;99.90
27413;DHT22;14871;52.702;5.230;2023-03-16T11:35:17;10.70;99.90
27413;DHT22;14871;52.702;5.230;2023-03-16T11:40:34;10.70;99.90
27413;DHT22;14871;52.702;5.230;2023-03-16T11:44:07;10.60;99.90
27413;DHT22;14871;52.702;5.230;2023-03-16T11:52:36;10.90;99.90
27413;DHT22;14871;52.702;5.230;2023-03-16T12:24:40;11.20;99.90
27413;DHT22;14871;52.702;5.230;2023-03-16T12:27:11;11.20;99.90
27413;DHT22;14871;52.702;5.230;2023-03-16T12:29:44;11.40;99.90
27413;DHT22;14871;52.702;5.230;2023-03-16T12:32:20;11.60;99.90
27413;DHT22;14871;52.702;5.230;2023-03-16T12:35:14;11.60;99.90
27413;DHT22;14871;52.702;5.230;2023-03-16T12:40:38;11.90;99.90
27413;DHT22;14871;52.702;5.230;2023-03-16T12:46:27;12.00;99.90
27413;DHT22;14871;52.702;5.230;2023-03-16T12:49:01;12.10;99.90
27413;DHT22;14871;52.702;5.230;2023-03-16T12:51:38;12.10;99.90
27413;DHT22;14871;52.702;5.230;2023-03-16T12:54:16;12.20;99.90
27413;DHT22;14871;52.702;5.230;2023-03-16T12:56:44;12.20;99.90
27413;DHT22;14871;52.702;5.230;2023-03-16T12:59:19;12.10;99.90
27413;DHT22;14871;52.702;5.230;2023-03-16T13:01:48;12.20;99.90
27413;DHT22;14871;52.702;5.230;2023-03-16T13:04:17;12.30;99.90
27413;DHT22;14871;52.702;5.230;2023-03-16T13:06:49;12.00;99.90
27413;DHT22;14871;52.702;5.230;2023-03-16T13:09:21;12.10;99.90
27413;DHT22;14871;52.702;5.230;2023-03-16T13:11:49;12.30;99.90
27413;DHT22;14871;52.702;5.230;2023-03-16T13:14:29;12.40;99.90
27413;DHT22;14871;52.702;5.230;2023-03-16T13:17:25;12.50;99.90
27413;DHT22;14871;52.702;5.230;2023-03-16T13:22:39;12.40;99.90
27413;DHT22;14871;52.702;5.230;2023-03-16T13:25:38;12.40;99.90
27413;DHT22;14871;52.702;5.230;2023-03-16T13:28:05;12.50;99.90
27413;DHT22;14871;52.702;5.230;2023-03-16T13:30:33;12.70;99.90
27413;DHT22;14871;52.702;5.230;2023-03-16T13:33:06;12.60;99.90
27413;DHT22;14871;52.702;5.230;2023-03-16T13:35:38;12.70;99.90
27413;DHT22;14871;52.702;5.230;2023-03-16T13:38:05;12.80;99.90
27413;DHT22;14871;52.702;5.230;2023-03-16T13:40:31;12.90;99.90
27413;DHT22;14871;52.702;5.230;2023-03-16T13:42:57;13.00;99.90
27413;DHT22;14871;52.702;5.230;2023-03-16T13:45:30;12.90;99.90
27413;DHT22;14871;52.702;5.230;2023-03-16T13:47:58;12.90;99.90
27413;DHT22;14871;52.702;5.230;2023-03-16T13:50:24;12.80;99.90
27413;DHT22;14871;52.702;5.230;2023-03-16T13:53:02;12.70;99.90
27413;DHT22;14871;52.702;5.230;2023-03-16T13:55:31;12.60;99.90
27413;DHT22;14871;52.702;5.230;2023-03-16T13:57:58;12.50;99.90
27413;DHT22;14871;52.702;5.230;2023-03-16T14:00:26;12.50;99.90
27413;DHT22;14871;52.702;5.230;2023-03-16T14:02:57;12.90;99.90
27413;DHT22;14871;52.702;5.230;2023-03-16T14:05:32;12.70;99.90
27413;DHT22;14871;52.702;5.230;2023-03-16T14:08:00;13.00;99.90
27413;DHT22;14871;52.702;5.230;2023-03-16T14:10:34;13.00;99.90
27413;DHT22;14871;52.702;5.230;2023-03-16T14:13:31;13.20;99.90
27413;DHT22;14871;52.702;5.230;2023-03-16T14:18:35;13.30;99.90
27413;DHT22;14871;52.702;5.230;2023-03-16T14:21:06;13.20;99.80
27413;DHT22;14871;52.702;5.230;2023-03-16T14:23:37;13.30;99.70
27413;DHT22;14871;52.702;5.230;2023-03-16T14:26:07;13.60;98.60
27413;DHT22;14871;52.702;5.230;2023-03-16T14:28:37;13.40;99.20
27413;DHT22;14871;52.702;5.230;2023-03-16T14:31:11;13.30;99.60
27413;DHT22;14871;52.702;5.230;2023-03-16T14:33:40;13.40;99.20
27413;DHT22;14871;52.702;5.230;2023-03-16T14:36:17;13.60;98.30
27413;DHT22;14871;52.702;5.230;2023-03-16T14:38:44;13.60;98.30
27413;DHT22;14871;52.702;5.230;2023-03-16T14:41:24;13.70;97.80
27413;DHT22;14871;52.702;5.230;2023-03-16T14:43:55;13.70;97.50
27413;DHT22;14871;52.702;5.230;2023-03-16T14:46:33;14.00;96.80
27413;DHT22;14871;52.702;5.230;2023-03-16T14:49:13;14.20;96.30
27413;DHT22;14871;52.702;5.230;2023-03-16T14:51:43;14.30;95.60
27413;DHT22;14871;52.702;5.230;2023-03-16T14:54:12;14.30;95.30
27413;DHT22;14871;52.702;5.230;2023-03-16T14:56:38;14.40;95.00
27413;DHT22;14871;52.702;5.230;2023-03-16T14:59:04;14.40;94.80
27413;DHT22;14871;52.702;5.230;2023-03-16T15:01:29;14.30;94.20
27413;DHT22;14871;52.702;5.230;2023-03-16T15:03:55;14.30;94.30
27413;DHT22;14871;52.702;5.230;2023-03-16T15:06:21;14.30;94.30
27413;DHT22;14871;52.702;5.230;2023-03-16T15:08:47;14.40;94.00
27413;DHT22;14871;52.702;5.230;2023-03-16T15:11:15;14.60;93.30
27413;DHT22;14871;52.702;5.230;2023-03-16T15:13:48;14.40;93.40
27413;DHT22;14871;52.702;5.230;2023-03-16T15:16:14;14.50;93.00
27413;DHT22;14871;52.702;5.230;2023-03-16T15:18:39;14.50;93.30
27413;DHT22;14871;52.702;5.230;2023-03-16T15:21:11;14.50;93.30
27413;DHT22;14871;52.702;5.230;2023-03-16T15:23:39;14.50;93.00
27413;DHT22;14871;52.702;5.230;2023-03-16T15:26:07;14.60;92.60
27413;DHT22;14871;52.702;5.230;2023-03-16T15:28:33;14.60;92.40
27413;DHT22;14871;52.702;5.230;2023-03-16T15:31:00;14.50;92.50
27413;DHT22;14871;52.702;5.230;2023-03-16T15:33:26;14.60;92.00
27413;DHT22;14871;52.702;5.230;2023-03-16T15:35:54;14.30;92.50
27413;DHT22;14871;52.702;5.230;2023-03-16T15:38:28;14.20;92.80
27413;DHT22;14871;52.702;5.230;2023-03-16T15:40:54;14.20;92.70
27413;DHT22;14871;52.702;5.230;2023-03-16T15:43:22;14.30;93.00
27413;DHT22;14871;52.702;5.230;2023-03-16T15:45:49;14.30;92.90
27413;DHT22;14871;52.702;5.230;2023-03-16T15:48:17;14.40;92.90
27413;DHT22;14871;52.702;5.230;2023-03-16T15:50:54;14.40;92.60
27413;DHT22;14871;52.702;5.230;2023-03-16T15:53:42;14.40;92.30
27413;DHT22;14871;52.702;5.230;2023-03-16T15:56:11;14.40;92.30
27413;DHT22;14871;52.702;5.230;2023-03-16T15:58:40;14.20;92.70
27413;DHT22;14871;52.702;5.230;2023-03-16T16:01:06;14.10;92.90
27413;DHT22;14871;52.702;5.230;2023-03-16T16:03:33;14.20;93.00
27413;DHT22;14871;52.702;5.230;2023-03-16T16:05:59;14.10;93.00
27413;DHT22;14871;52.702;5.230;2023-03-16T16:08:25;14.20;92.90
27413;DHT22;14871;52.702;5.230;2023-03-16T16:10:51;14.10;92.60
27413;DHT22;14871;52.702;5.230;2023-03-16T16:13:29;14.20;92.40
27413;DHT22;14871;52.702;5.230;2023-03-16T16:15:55;14.20;92.40
27413;DHT22;14871;52.702;5.230;2023-03-16T16:18:29;14.40;91.70
27413;DHT22;14871;52.702;5.230;2023-03-16T16:20:57;14.30;92.10
27413;DHT22;14871;52.702;5.230;2023-03-16T16:23:24;14.20;92.20
27413;DHT22;14871;52.702;5.230;2023-03-16T16:25:53;14.20;92.40
27413;DHT22;14871;52.702;5.230;2023-03-16T16:28:22;14.10;92.70
27413;DHT22;14871;52.702;5.230;2023-03-16T16:30:48;14.10;93.00
27413;DHT22;14871;52.702;5.230;2023-03-16T16:33:28;14.10;93.00
27413;DHT22;14871;52.702;5.230;2023-03-16T16:35:56;14.20;93.00
27413;DHT22;14871;52.702;5.230;2023-03-16T16:38:22;14.10;93.30
27413;DHT22;14871;52.702;5.230;2023-03-16T16:40:50;13.90;93.60
27413;DHT22;14871;52.702;5.230;2023-03-16T16:46:14;13.70;93.90
27413;DHT22;14871;52.702;5.230;2023-03-16T16:49:26;13.70;93.80
27413;DHT22;14871;52.702;5.230;2023-03-16T16:51:53;13.70;93.70
27413;DHT22;14871;52.702;5.230;2023-03-16T16:54:20;13.60;94.00
27413;DHT22;14871;52.702;5.230;2023-03-16T16:56:48;13.60;93.80
27413;DHT22;14871;52.702;5.230;2023-03-16T16:59:23;13.50;94.10
27413;DHT22;14871;52.702;5.230;2023-03-16T17:01:49;13.40;94.50
27413;DHT22;14871;52.702;5.230;2023-03-16T17:04:23;13.30;94.80
27413;DHT22;14871;52.702;5.230;2023-03-16T17:06:55;13.20;95.30
27413;DHT22;14871;52.702;5.230;2023-03-16T17:09:24;13.00;96.20
27413;DHT22;14871;52.702;5.230;2023-03-16T17:11:50;12.80;96.60
27413;DHT22;14871;52.702;5.230;2023-03-16T17:14:18;12.80;96.90
27413;DHT22;14871;52.702;5.230;2023-03-16T17:16:44;12.80;97.00
27413;DHT22;14871;52.702;5.230;2023-03-16T17:19:24;12.60;97.40
27413;DHT22;14871;52.702;5.230;2023-03-16T17:21:51;12.70;97.30